sensor_id;sensor_type;location;lat;lon;timestamp;pressure;altitude;pressure_sealevel;temperature;humidity
11395;BME280;5753;54.402;10.220;2022-09-24T00:01:30;101328.81;;;22.71;38.12
11395;BME280;5753;54.402;10.220;2022-09-24T00:04:02;101337.47;;;22.74;37.96
11395;BME280;5753;54.402;10.220;2022-09-24T00:06:36;101327.94;;;22.69;38.27
11395;BME280;5753;54.402;10.220;2022-09-24T00:09:03;101328.59;;;22.78;38.42
11395;BME280;5753;54.402;10.220;2022-09-24T00:11:30;101333.88;;;22.77;37.92
11395;BME280;5753;54.402;10.220;2022-09-24T00:13:57;101325.03;;;22.81;37.95
11395;BME280;5753;54.402;10.220;2022-09-24T00:16:26;101336.25;;;22.53;38.63
11395;BME280;5753;54.402;10.220;2022-09-24T00:18:53;101329.72;;;22.34;39.46
11395;BME280;5753;54.402;10.220;2022-09-24T00:21:28;101326.34;;;22.97;38.21
11395;BME280;5753;54.402;10.220;2022-09-24T00:23:57;101324.31;;;22.40;39.50
11395;BME280;5753;54.402;10.220;2022-09-24T00:26:24;101320.03;;;23.03;38.23
11395;BME280;5753;54.402;10.220;2022-09-24T00:29:11;101324.34;;;23.05;38.18
11395;BME280;5753;54.402;10.220;2022-09-24T00:31:38;101324.63;;;23.27;37.48
11395;BME280;5753;54.402;10.220;2022-09-24T00:34:04;101327.41;;;23.22;37.84
11395;BME280;5753;54.402;10.220;2022-09-24T00:36:31;101316.13;;;23.17;37.72
11395;BME280;5753;54.402;10.220;2022-09-24T00:38:58;101323.16;;;23.17;37.66
11395;BME280;5753;54.402;10.220;2022-09-24T00:41:27;101313.47;;;23.17;37.52
11395;BME280;5753;54.402;10.220;2022-09-24T00:43:53;101314.47;;;23.13;37.56
11395;BME280;5753;54.402;10.220;2022-09-24T00:49:02;101317.03;;;23.16;37.61
11395;BME280;5753;54.402;10.220;2022-09-24T00:51:31;101315.47;;;23.09;37.84
11395;BME280;5753;54.402;10.220;2022-09-24T00:54:05;101311.94;;;23.10;37.81
11395;BME280;5753;54.402;10.220;2022-09-24T00:56:34;101319.44;;;22.93;38.31
11395;BME280;5753;54.402;10.220;2022-09-24T00:59:02;101306.84;;;23.04;37.83
11395;BME280;5753;54.402;10.220;2022-09-24T01:01:29;101307.34;;;23.17;37.89
11395;BME280;5753;54.402;10.220;2022-09-24T01:03:56;101311.75;;;23.16;37.87
11395;BME280;5753;54.402;10.220;2022-09-24T01:06:23;101303.84;;;23.18;37.75
11395;BME280;5753;54.402;10.220;2022-09-24T01:08:50;101308.81;;;23.29;37.77
11395;BME280;5753;54.402;10.220;2022-09-24T01:17:56;101299.25;;;23.54;37.24
11395;BME280;5753;54.402;10.220;2022-09-24T01:22:57;101301.81;;;23.57;37.21
11395;BME280;5753;54.402;10.220;2022-09-24T01:31:09;101298.91;;;23.37;37.83
11395;BME280;5753;54.402;10.220;2022-09-24T01:33:41;101292.75;;;23.38;37.67
11395;BME280;5753;54.402;10.220;2022-09-24T01:36:10;101299.69;;;23.40;37.69
11395;BME280;5753;54.402;10.220;2022-09-24T01:38:41;101290.19;;;23.35;37.73
11395;BME280;5753;54.402;10.220;2022-09-24T01:41:11;101292.75;;;23.38;37.74
11395;BME280;5753;54.402;10.220;2022-09-24T01:43:40;101293.56;;;23.40;37.62
11395;BME280;5753;54.402;10.220;2022-09-24T01:46:08;101295.47;;;23.35;37.54
11395;BME280;5753;54.402;10.220;2022-09-24T01:48:38;101286.41;;;23.14;38.20
11395;BME280;5753;54.402;10.220;2022-09-24T01:56:43;101286.78;;;23.02;38.44
11395;BME280;5753;54.402;10.220;2022-09-24T01:59:21;101287.91;;;22.93;38.71
11395;BME280;5753;54.402;10.220;2022-09-24T02:02:00;101279.56;;;23.08;38.54
11395;BME280;5753;54.402;10.220;2022-09-24T02:04:29;101271.34;;;23.20;38.27
11395;BME280;5753;54.402;10.220;2022-09-24T02:07:05;101274.63;;;22.98;38.92
11395;BME280;5753;54.402;10.220;2022-09-24T02:09:37;101274.31;;;23.38;37.98
11395;BME280;5753;54.402;10.220;2022-09-24T02:14:44;101271.50;;;23.14;38.33
11395;BME280;5753;54.402;10.220;2022-09-24T02:17:14;101277.84;;;23.07;38.68
11395;BME280;5753;54.402;10.220;2022-09-24T02:19:41;101275.41;;;23.31;38.19
11395;BME280;5753;54.402;10.220;2022-09-24T02:22:10;101278.59;;;23.71;37.54
11395;BME280;5753;54.402;10.220;2022-09-24T02:27:03;101271.88;;;23.61;37.90
11395;BME280;5753;54.402;10.220;2022-09-24T02:29:29;101268.25;;;23.65;37.83
11395;BME280;5753;54.402;10.220;2022-09-24T02:31:56;101275.66;;;23.51;38.02
11395;BME280;5753;54.402;10.220;2022-09-24T02:34:31;101276.22;;;23.33;38.66
11395;BME280;5753;54.402;10.220;2022-09-24T02:37:06;101267.38;;;23.35;38.74
11395;BME280;5753;54.402;10.220;2022-09-24T02:39:33;101270.72;;;23.40;38.92
11395;BME280;5753;54.402;10.220;2022-09-24T02:42:02;101270.88;;;23.65;37.90
11395;BME280;5753;54.402;10.220;2022-09-24T02:44:33;101278.38;;;23.48;38.99
11395;BME280;5753;54.402;10.220;2022-09-24T02:47:01;101272.63;;;23.66;38.27
11395;BME280;5753;54.402;10.220;2022-09-24T02:49:27;101267.97;;;23.74;38.46
11395;BME280;5753;54.402;10.220;2022-09-24T02:51:53;101264.00;;;23.32;39.76
11395;BME280;5753;54.402;10.220;2022-09-24T02:54:20;101267.63;;;22.97;40.07
11395;BME280;5753;54.402;10.220;2022-09-24T02:56:47;101262.09;;;23.66;39.07
11395;BME280;5753;54.402;10.220;2022-09-24T02:59:13;101269.47;;;23.81;38.94
11395;BME280;5753;54.402;10.220;2022-09-24T03:01:39;101259.31;;;23.97;38.36
11395;BME280;5753;54.402;10.220;2022-09-24T03:04:05;101265.53;;;24.21;37.92
11395;BME280;5753;54.402;10.220;2022-09-24T03:06:32;101267.34;;;23.93;38.52
11395;BME280;5753;54.402;10.220;2022-09-24T03:08:58;101264.34;;;23.19;40.81
11395;BME280;5753;54.402;10.220;2022-09-24T03:11:25;101261.97;;;23.40;40.35
11395;BME280;5753;54.402;10.220;2022-09-24T03:13:51;101260.78;;;23.79;39.45
11395;BME280;5753;54.402;10.220;2022-09-24T03:16:18;101259.97;;;23.48;40.14
11395;BME280;5753;54.402;10.220;2022-09-24T03:18:45;101262.28;;;23.86;39.40
11395;BME280;5753;54.402;10.220;2022-09-24T03:21:13;101259.25;;;23.72;39.35
11395;BME280;5753;54.402;10.220;2022-09-24T03:23:40;101257.06;;;24.11;38.60
11395;BME280;5753;54.402;10.220;2022-09-24T03:26:07;101256.19;;;24.11;38.49
11395;BME280;5753;54.402;10.220;2022-09-24T03:28:33;101257.59;;;23.96;38.78
11395;BME280;5753;54.402;10.220;2022-09-24T03:30:59;101247.91;;;23.97;38.79
11395;BME280;5753;54.402;10.220;2022-09-24T03:36:03;101258.81;;;24.12;38.04
11395;BME280;5753;54.402;10.220;2022-09-24T03:38:32;101254.47;;;24.10;38.04
11395;BME280;5753;54.402;10.220;2022-09-24T03:40:58;101260.56;;;24.12;38.06
11395;BME280;5753;54.402;10.220;2022-09-24T03:43:25;101255.34;;;24.10;37.91
11395;BME280;5753;54.402;10.220;2022-09-24T03:45:52;101251.16;;;24.05;37.75
11395;BME280;5753;54.402;10.220;2022-09-24T03:48:20;101247.69;;;24.03;38.30
11395;BME280;5753;54.402;10.220;2022-09-24T03:50:47;101243.94;;;24.10;37.93
11395;BME280;5753;54.402;10.220;2022-09-24T03:53:13;101247.59;;;24.06;37.75
11395;BME280;5753;54.402;10.220;2022-09-24T03:55:44;101244.81;;;24.10;37.58
11395;BME280;5753;54.402;10.220;2022-09-24T03:58:12;101247.09;;;23.68;38.35
11395;BME280;5753;54.402;10.220;2022-09-24T04:00:38;101243.81;;;23.88;38.21
11395;BME280;5753;54.402;10.220;2022-09-24T04:03:05;101240.47;;;23.83;38.52
11395;BME280;5753;54.402;10.220;2022-09-24T04:05:31;101244.69;;;23.89;38.20
11395;BME280;5753;54.402;10.220;2022-09-24T04:07:58;101239.63;;;23.82;38.29
11395;BME280;5753;54.402;10.220;2022-09-24T04:10:25;101242.91;;;23.89;37.93
11395;BME280;5753;54.402;10.220;2022-09-24T04:12:54;101242.75;;;23.94;37.93
11395;BME280;5753;54.402;10.220;2022-09-24T04:15:20;101237.47;;;23.94;37.75
11395;BME280;5753;54.402;10.220;2022-09-24T04:17:51;101229.59;;;23.94;37.86
11395;BME280;5753;54.402;10.220;2022-09-24T04:20:18;101242.75;;;23.94;37.93
11395;BME280;5753;54.402;10.220;2022-09-24T04:22:50;101241.69;;;23.14;40.07
11395;BME280;5753;54.402;10.220;2022-09-24T04:25:16;101235.38;;;23.78;38.58
11395;BME280;5753;54.402;10.220;2022-09-24T04:27:43;101237.59;;;23.91;38.16
11395;BME280;5753;54.402;10.220;2022-09-24T04:30:12;101244.31;;;23.73;38.56
11395;BME280;5753;54.402;10.220;2022-09-24T04:32:40;101241.13;;;23.90;38.53
11395;BME280;5753;54.402;10.220;2022-09-24T04:35:06;101236.47;;;23.98;37.95
11395;BME280;5753;54.402;10.220;2022-09-24T04:37:33;101246.09;;;23.72;38.62
11395;BME280;5753;54.402;10.220;2022-09-24T04:39:59;101236.38;;;23.74;38.75
11395;BME280;5753;54.402;10.220;2022-09-24T04:42:25;101229.38;;;23.73;38.55
11395;BME280;5753;54.402;10.220;2022-09-24T04:44:51;101239.31;;;23.92;38.27
11395;BME280;5753;54.402;10.220;2022-09-24T04:47:17;101235.25;;;24.08;38.15
11395;BME280;5753;54.402;10.220;2022-09-24T04:49:43;101231.78;;;24.06;38.01
11395;BME280;5753;54.402;10.220;2022-09-24T04:52:11;101234.53;;;24.03;38.04
11395;BME280;5753;54.402;10.220;2022-09-24T04:54:41;101230.94;;;24.05;37.93
11395;BME280;5753;54.402;10.220;2022-09-24T04:57:10;101233.84;;;23.98;37.98
11395;BME280;5753;54.402;10.220;2022-09-24T04:59:36;101228.34;;;24.04;38.01
11395;BME280;5753;54.402;10.220;2022-09-24T05:02:02;101231.91;;;24.03;38.41
11395;BME280;5753;54.402;10.220;2022-09-24T05:04:28;101233.88;;;23.96;37.99
11395;BME280;5753;54.402;10.220;2022-09-24T05:06:55;101231.03;;;24.02;37.89
11395;BME280;5753;54.402;10.220;2022-09-24T05:09:21;101235.88;;;23.90;38.38
11395;BME280;5753;54.402;10.220;2022-09-24T05:11:47;101234.25;;;23.85;38.76
11395;BME280;5753;54.402;10.220;2022-09-24T05:14:13;101235.41;;;23.77;38.33
11395;BME280;5753;54.402;10.220;2022-09-24T05:16:39;101240.22;;;23.91;38.08
11395;BME280;5753;54.402;10.220;2022-09-24T05:19:05;101240.19;;;23.64;39.12
11395;BME280;5753;54.402;10.220;2022-09-24T05:21:31;101248.44;;;23.52;39.28
11395;BME280;5753;54.402;10.220;2022-09-24T05:23:57;101249.50;;;23.17;40.37
11395;BME280;5753;54.402;10.220;2022-09-24T05:26:23;101249.47;;;22.89;41.24
11395;BME280;5753;54.402;10.220;2022-09-24T05:29:08;101250.16;;;23.82;39.06
11395;BME280;5753;54.402;10.220;2022-09-24T05:31:34;101252.88;;;23.79;39.15
11395;BME280;5753;54.402;10.220;2022-09-24T05:34:01;101246.41;;;23.90;38.82
11395;BME280;5753;54.402;10.220;2022-09-24T05:36:28;101250.31;;;23.48;39.73
11395;BME280;5753;54.402;10.220;2022-09-24T05:38:54;101253.78;;;24.05;38.91
11395;BME280;5753;54.402;10.220;2022-09-24T05:41:21;101255.28;;;24.13;38.82
11395;BME280;5753;54.402;10.220;2022-09-24T05:43:47;101249.16;;;24.13;38.94
11395;BME280;5753;54.402;10.220;2022-09-24T05:46:14;101261.13;;;23.95;39.45
11395;BME280;5753;54.402;10.220;2022-09-24T05:48:40;101253.56;;;24.11;38.96
11395;BME280;5753;54.402;10.220;2022-09-24T05:51:06;101258.75;;;24.40;38.62
11395;BME280;5753;54.402;10.220;2022-09-24T05:53:32;101252.69;;;24.38;38.42
11395;BME280;5753;54.402;10.220;2022-09-24T05:55:59;101256.59;;;24.52;38.45
11395;BME280;5753;54.402;10.220;2022-09-24T05:58:26;101257.03;;;24.39;38.86
11395;BME280;5753;54.402;10.220;2022-09-24T06:00:52;101248.00;;;24.46;38.55
11395;BME280;5753;54.402;10.220;2022-09-24T06:03:19;101247.50;;;24.35;39.01
11395;BME280;5753;54.402;10.220;2022-09-24T06:05:49;101253.69;;;24.34;38.84
11395;BME280;5753;54.402;10.220;2022-09-24T06:08:18;101250.81;;;24.67;38.01
11395;BME280;5753;54.402;10.220;2022-09-24T06:10:45;101260.84;;;24.80;37.92
11395;BME280;5753;54.402;10.220;2022-09-24T06:13:13;101261.47;;;24.87;37.80
11395;BME280;5753;54.402;10.220;2022-09-24T06:15:41;101266.63;;;24.90;37.90
11395;BME280;5753;54.402;10.220;2022-09-24T06:18:08;101267.00;;;25.04;37.71
11395;BME280;5753;54.402;10.220;2022-09-24T06:20:34;101264.31;;;25.06;37.69
11395;BME280;5753;54.402;10.220;2022-09-24T06:23:01;101262.78;;;25.24;37.77
11395;BME280;5753;54.402;10.220;2022-09-24T06:25:28;101267.50;;;25.37;37.21
11395;BME280;5753;54.402;10.220;2022-09-24T06:27:59;101264.53;;;25.00;37.83
11395;BME280;5753;54.402;10.220;2022-09-24T06:30:37;101261.28;;;25.17;37.80
11395;BME280;5753;54.402;10.220;2022-09-24T06:33:12;101265.38;;;25.47;37.39
11395;BME280;5753;54.402;10.220;2022-09-24T06:35:40;101262.66;;;25.27;37.68
11395;BME280;5753;54.402;10.220;2022-09-24T06:38:15;101273.53;;;25.41;37.47
11395;BME280;5753;54.402;10.220;2022-09-24T06:40:42;101278.44;;;25.50;37.45
11395;BME280;5753;54.402;10.220;2022-09-24T06:43:12;101274.72;;;25.56;37.33
11395;BME280;5753;54.402;10.220;2022-09-24T06:45:39;101275.41;;;25.16;38.29
11395;BME280;5753;54.402;10.220;2022-09-24T06:48:12;101273.56;;;25.18;38.19
11395;BME280;5753;54.402;10.220;2022-09-24T06:50:40;101274.63;;;24.64;39.36
11395;BME280;5753;54.402;10.220;2022-09-24T06:53:08;101272.81;;;24.66;39.69
11395;BME280;5753;54.402;10.220;2022-09-24T06:55:35;101273.44;;;25.21;38.64
11395;BME280;5753;54.402;10.220;2022-09-24T07:00:29;101279.91;;;25.81;37.40
11395;BME280;5753;54.402;10.220;2022-09-24T07:02:55;101280.88;;;26.00;37.13
11395;BME280;5753;54.402;10.220;2022-09-24T07:05:21;101281.50;;;25.85;37.20
11395;BME280;5753;54.402;10.220;2022-09-24T07:07:47;101283.03;;;25.45;38.22
11395;BME280;5753;54.402;10.220;2022-09-24T07:10:13;101280.31;;;25.25;38.50
11395;BME280;5753;54.402;10.220;2022-09-24T07:12:40;101286.97;;;25.35;38.29
11395;BME280;5753;54.402;10.220;2022-09-24T07:15:07;101282.03;;;25.26;39.05
11395;BME280;5753;54.402;10.220;2022-09-24T07:17:34;101288.19;;;26.15;37.39
11395;BME280;5753;54.402;10.220;2022-09-24T07:20:00;101283.75;;;26.58;36.51
11395;BME280;5753;54.402;10.220;2022-09-24T07:22:26;101286.50;;;26.75;36.27
11395;BME280;5753;54.402;10.220;2022-09-24T07:24:53;101288.00;;;25.98;37.33
11395;BME280;5753;54.402;10.220;2022-09-24T07:27:19;101292.06;;;26.69;36.17
11395;BME280;5753;54.402;10.220;2022-09-24T07:29:47;101283.34;;;25.83;37.80
11395;BME280;5753;54.402;10.220;2022-09-24T07:32:15;101288.72;;;26.23;37.00
11395;BME280;5753;54.402;10.220;2022-09-24T07:34:43;101285.19;;;25.81;37.75
11395;BME280;5753;54.402;10.220;2022-09-24T07:37:09;101291.28;;;25.14;38.96
11395;BME280;5753;54.402;10.220;2022-09-24T07:39:35;101295.44;;;24.71;39.83
11395;BME280;5753;54.402;10.220;2022-09-24T07:42:01;101294.66;;;23.90;41.73
11395;BME280;5753;54.402;10.220;2022-09-24T07:44:28;101297.38;;;24.91;39.77
11395;BME280;5753;54.402;10.220;2022-09-24T07:46:54;101301.38;;;24.78;39.80
11395;BME280;5753;54.402;10.220;2022-09-24T07:49:21;101300.59;;;24.99;39.84
11395;BME280;5753;54.402;10.220;2022-09-24T07:51:47;101303.28;;;25.23;39.40
11395;BME280;5753;54.402;10.220;2022-09-24T07:54:14;101305.47;;;25.12;39.03
11395;BME280;5753;54.402;10.220;2022-09-24T07:56:40;101308.47;;;25.01;39.83
11395;BME280;5753;54.402;10.220;2022-09-24T07:59:06;101313.09;;;26.52;37.09
11395;BME280;5753;54.402;10.220;2022-09-24T08:01:33;101308.28;;;26.19;37.19
11395;BME280;5753;54.402;10.220;2022-09-24T08:04:00;101311.09;;;26.37;36.84
11395;BME280;5753;54.402;10.220;2022-09-24T08:06:26;101307.38;;;26.81;35.94
11395;BME280;5753;54.402;10.220;2022-09-24T08:08:52;101310.00;;;27.22;35.84
11395;BME280;5753;54.402;10.220;2022-09-24T08:11:20;101312.94;;;26.34;36.37
11395;BME280;5753;54.402;10.220;2022-09-24T08:13:46;101315.19;;;26.44;36.57
11395;BME280;5753;54.402;10.220;2022-09-24T08:16:13;101310.78;;;27.24;35.26
11395;BME280;5753;54.402;10.220;2022-09-24T08:18:41;101316.50;;;27.34;35.67
11395;BME280;5753;54.402;10.220;2022-09-24T08:21:09;101321.84;;;27.71;34.95
11395;BME280;5753;54.402;10.220;2022-09-24T08:23:39;101318.03;;;28.13;34.30
11395;BME280;5753;54.402;10.220;2022-09-24T08:26:06;101317.69;;;26.87;35.86
11395;BME280;5753;54.402;10.220;2022-09-24T08:28:33;101329.84;;;28.25;34.29
11395;BME280;5753;54.402;10.220;2022-09-24T08:31:04;101317.66;;;28.20;34.32
11395;BME280;5753;54.402;10.220;2022-09-24T08:33:34;101315.31;;;28.83;32.91
11395;BME280;5753;54.402;10.220;2022-09-24T08:36:02;101316.75;;;28.91;33.12
11395;BME280;5753;54.402;10.220;2022-09-24T08:38:28;101316.59;;;28.25;34.10
11395;BME280;5753;54.402;10.220;2022-09-24T08:43:55;101315.19;;;28.87;32.84
11395;BME280;5753;54.402;10.220;2022-09-24T08:46:48;101309.28;;;29.30;32.06
11395;BME280;5753;54.402;10.220;2022-09-24T08:49:42;101316.81;;;29.22;32.41
11395;BME280;5753;54.402;10.220;2022-09-24T08:54:52;101320.63;;;28.32;33.22
11395;BME280;5753;54.402;10.220;2022-09-24T08:57:20;101325.38;;;29.27;32.61
11395;BME280;5753;54.402;10.220;2022-09-24T08:59:50;101323.81;;;29.07;33.19
11395;BME280;5753;54.402;10.220;2022-09-24T09:05:00;101332.03;;;28.68;33.26
11395;BME280;5753;54.402;10.220;2022-09-24T09:10:35;101332.03;;;28.68;33.16
11395;BME280;5753;54.402;10.220;2022-09-24T09:13:08;101329.19;;;29.39;31.96
11395;BME280;5753;54.402;10.220;2022-09-24T09:15:45;101326.81;;;29.50;31.56
11395;BME280;5753;54.402;10.220;2022-09-24T09:21:38;101328.25;;;30.93;30.29
11395;BME280;5753;54.402;10.220;2022-09-24T09:24:21;101333.19;;;30.85;30.22
11395;BME280;5753;54.402;10.220;2022-09-24T09:26:55;101327.47;;;30.77;30.17
11395;BME280;5753;54.402;10.220;2022-09-24T09:29:25;101327.72;;;30.72;30.31
11395;BME280;5753;54.402;10.220;2022-09-24T09:37:44;101328.38;;;30.61;30.08
11395;BME280;5753;54.402;10.220;2022-09-24T09:40:41;101339.44;;;30.39;30.49
11395;BME280;5753;54.402;10.220;2022-09-24T09:43:12;101331.53;;;28.77;32.40
11395;BME280;5753;54.402;10.220;2022-09-24T09:48:45;101321.91;;;29.42;31.47
11395;BME280;5753;54.402;10.220;2022-09-24T09:51:15;101331.13;;;28.87;31.54
11395;BME280;5753;54.402;10.220;2022-09-24T09:53:53;101328.69;;;29.95;30.62
11395;BME280;5753;54.402;10.220;2022-09-24T09:56:27;101328.19;;;30.04;30.66
11395;BME280;5753;54.402;10.220;2022-09-24T10:01:40;101319.75;;;30.28;30.20
11395;BME280;5753;54.402;10.220;2022-09-24T10:07:07;101322.88;;;30.64;30.28
11395;BME280;5753;54.402;10.220;2022-09-24T10:09:33;101324.25;;;30.42;30.29
11395;BME280;5753;54.402;10.220;2022-09-24T10:12:19;101323.72;;;31.64;29.09
11395;BME280;5753;54.402;10.220;2022-09-24T10:15:11;101317.38;;;29.44;31.32
11395;BME280;5753;54.402;10.220;2022-09-24T10:17:41;101310.28;;;29.28;32.30
11395;BME280;5753;54.402;10.220;2022-09-24T10:22:44;101320.25;;;30.19;31.54
11395;BME280;5753;54.402;10.220;2022-09-24T10:25:27;101318.88;;;30.72;30.57
11395;BME280;5753;54.402;10.220;2022-09-24T10:27:56;101329.38;;;30.89;30.08
11395;BME280;5753;54.402;10.220;2022-09-24T10:31:02;101322.78;;;29.90;30.96
11395;BME280;5753;54.402;10.220;2022-09-24T10:33:37;101324.16;;;29.66;31.82
11395;BME280;5753;54.402;10.220;2022-09-24T10:36:07;101321.09;;;28.74;32.64
11395;BME280;5753;54.402;10.220;2022-09-24T10:38:33;101323.53;;;29.92;31.62
11395;BME280;5753;54.402;10.220;2022-09-24T10:40:59;101326.13;;;30.10;30.76
11395;BME280;5753;54.402;10.220;2022-09-24T10:43:26;101323.91;;;29.86;30.82
11395;BME280;5753;54.402;10.220;2022-09-24T10:48:49;101318.78;;;30.29;30.19
11395;BME280;5753;54.402;10.220;2022-09-24T10:56:56;101322.22;;;28.88;31.89
11395;BME280;5753;54.402;10.220;2022-09-24T10:59:39;101325.50;;;29.41;31.30
11395;BME280;5753;54.402;10.220;2022-09-24T11:19:02;101315.75;;;29.89;31.42
11395;BME280;5753;54.402;10.220;2022-09-24T11:21:43;101315.03;;;30.47;30.21
11395;BME280;5753;54.402;10.220;2022-09-24T11:24:20;101314.75;;;30.22;30.36
11395;BME280;5753;54.402;10.220;2022-09-24T11:38:15;101314.19;;;31.19;28.89
11395;BME280;5753;54.402;10.220;2022-09-24T11:46:51;101312.56;;;31.17;29.47
11395;BME280;5753;54.402;10.220;2022-09-24T11:49:34;101315.50;;;30.84;29.83
11395;BME280;5753;54.402;10.220;2022-09-24T11:58:13;101317.88;;;29.98;30.56
11395;BME280;5753;54.402;10.220;2022-09-24T12:00:48;101313.78;;;29.45;31.65
11395;BME280;5753;54.402;10.220;2022-09-24T12:03:23;101315.25;;;29.83;30.99
11395;BME280;5753;54.402;10.220;2022-09-24T12:06:04;101317.69;;;30.01;31.37
11395;BME280;5753;54.402;10.220;2022-09-24T12:08:53;101320.22;;;29.89;31.25
11395;BME280;5753;54.402;10.220;2022-09-24T12:11:33;101312.81;;;29.94;31.07
11395;BME280;5753;54.402;10.220;2022-09-24T12:14:22;101317.75;;;29.21;32.39
11395;BME280;5753;54.402;10.220;2022-09-24T12:16:56;101312.59;;;29.51;31.76
11395;BME280;5753;54.402;10.220;2022-09-24T12:19:31;101311.19;;;30.07;30.68
11395;BME280;5753;54.402;10.220;2022-09-24T12:22:01;101311.97;;;29.93;30.90
11395;BME280;5753;54.402;10.220;2022-09-24T12:27:00;101313.25;;;29.70;31.28
11395;BME280;5753;54.402;10.220;2022-09-24T12:33:34;101308.44;;;29.93;30.75
11395;BME280;5753;54.402;10.220;2022-09-24T12:38:18;101305.34;;;29.37;31.92
11395;BME280;5753;54.402;10.220;2022-09-24T12:46:55;101317.66;;;29.23;31.87
11395;BME280;5753;54.402;10.220;2022-09-24T12:51:53;101313.47;;;28.68;32.65
11395;BME280;5753;54.402;10.220;2022-09-24T12:54:26;101311.88;;;28.81;32.98
11395;BME280;5753;54.402;10.220;2022-09-24T12:59:33;101306.72;;;28.78;32.63
11395;BME280;5753;54.402;10.220;2022-09-24T13:02:25;101315.78;;;28.74;33.57
11395;BME280;5753;54.402;10.220;2022-09-24T13:07:37;101310.59;;;28.90;33.06
11395;BME280;5753;54.402;10.220;2022-09-24T13:10:23;101302.53;;;28.74;32.80
11395;BME280;5753;54.402;10.220;2022-09-24T13:12:50;101304.63;;;28.85;32.78
11395;BME280;5753;54.402;10.220;2022-09-24T13:20:30;101308.31;;;29.49;32.29
11395;BME280;5753;54.402;10.220;2022-09-24T13:25:55;101304.97;;;29.45;31.93
11395;BME280;5753;54.402;10.220;2022-09-24T13:28:26;101300.25;;;29.50;31.94
11395;BME280;5753;54.402;10.220;2022-09-24T13:31:16;101304.72;;;29.32;32.00
11395;BME280;5753;54.402;10.220;2022-09-24T13:33:45;101304.94;;;28.96;32.90
11395;BME280;5753;54.402;10.220;2022-09-24T13:41:47;101309.59;;;29.24;32.10
11395;BME280;5753;54.402;10.220;2022-09-24T13:44:38;101303.59;;;29.21;31.86
11395;BME280;5753;54.402;10.220;2022-09-24T13:47:42;101312.44;;;29.21;32.23
11395;BME280;5753;54.402;10.220;2022-09-24T13:52:52;101304.13;;;29.27;32.40
11395;BME280;5753;54.402;10.220;2022-09-24T13:57:58;101298.28;;;28.55;33.25
11395;BME280;5753;54.402;10.220;2022-09-24T14:00:25;101304.94;;;28.96;33.23
11395;BME280;5753;54.402;10.220;2022-09-24T14:03:24;101299.31;;;29.18;32.83
11395;BME280;5753;54.402;10.220;2022-09-24T14:05:52;101303.78;;;28.67;33.36
11395;BME280;5753;54.402;10.220;2022-09-24T14:08:20;101304.41;;;28.90;32.79
11395;BME280;5753;54.402;10.220;2022-09-24T14:10:48;101305.28;;;28.90;32.88
11395;BME280;5753;54.402;10.220;2022-09-24T14:13:18;101305.97;;;28.59;33.18
11395;BME280;5753;54.402;10.220;2022-09-24T14:18:16;101304.28;;;28.58;33.35
11395;BME280;5753;54.402;10.220;2022-09-24T14:20:42;101301.63;;;28.58;33.39
11395;BME280;5753;54.402;10.220;2022-09-24T14:23:18;101305.38;;;28.54;33.83
11395;BME280;5753;54.402;10.220;2022-09-24T14:25:47;101304.75;;;28.49;33.45
11395;BME280;5753;54.402;10.220;2022-09-24T14:28:14;101301.13;;;28.15;33.94
11395;BME280;5753;54.402;10.220;2022-09-24T14:31:01;101300.38;;;28.31;34.20
11395;BME280;5753;54.402;10.220;2022-09-24T14:33:30;101305.97;;;28.25;33.99
11395;BME280;5753;54.402;10.220;2022-09-24T14:35:59;101315.22;;;28.16;34.57
11395;BME280;5753;54.402;10.220;2022-09-24T14:38:35;101306.09;;;28.04;34.29
11395;BME280;5753;54.402;10.220;2022-09-24T14:41:18;101309.41;;;27.90;34.68
11395;BME280;5753;54.402;10.220;2022-09-24T14:43:49;101304.69;;;28.14;34.61
11395;BME280;5753;54.402;10.220;2022-09-24T14:48:45;101305.31;;;28.02;34.53
11395;BME280;5753;54.402;10.220;2022-09-24T14:51:28;101305.97;;;28.25;34.61
11395;BME280;5753;54.402;10.220;2022-09-24T14:54:17;101303.13;;;28.10;34.80
11395;BME280;5753;54.402;10.220;2022-09-24T14:56:44;101298.31;;;28.01;34.54
11395;BME280;5753;54.402;10.220;2022-09-24T14:59:24;101298.78;;;27.73;35.12
11395;BME280;5753;54.402;10.220;2022-09-24T15:02:02;101293.78;;;27.67;35.35
11395;BME280;5753;54.402;10.220;2022-09-24T15:04:28;101298.06;;;27.51;34.96
11395;BME280;5753;54.402;10.220;2022-09-24T15:06:55;101299.19;;;27.26;35.57
11395;BME280;5753;54.402;10.220;2022-09-24T15:09:26;101298.28;;;27.46;35.74
11395;BME280;5753;54.402;10.220;2022-09-24T15:11:54;101297.19;;;27.32;35.80
11395;BME280;5753;54.402;10.220;2022-09-24T15:14:29;101295.97;;;27.39;35.67
11395;BME280;5753;54.402;10.220;2022-09-24T15:17:19;101302.34;;;27.53;35.72
11395;BME280;5753;54.402;10.220;2022-09-24T15:19:46;101298.91;;;27.51;35.51
11395;BME280;5753;54.402;10.220;2022-09-24T15:22:12;101306.00;;;27.51;35.71
11395;BME280;5753;54.402;10.220;2022-09-24T15:24:38;101304.06;;;27.54;36.15
11395;BME280;5753;54.402;10.220;2022-09-24T15:27:14;101314.63;;;26.98;37.91
11395;BME280;5753;54.402;10.220;2022-09-24T15:29:40;101311.78;;;27.03;37.83
11395;BME280;5753;54.402;10.220;2022-09-24T15:32:17;101318.97;;;26.16;40.00
11395;BME280;5753;54.402;10.220;2022-09-24T15:34:43;101318.06;;;26.59;39.32
11395;BME280;5753;54.402;10.220;2022-09-24T15:37:15;101313.59;;;26.80;39.43
11395;BME280;5753;54.402;10.220;2022-09-24T15:39:43;101310.69;;;26.03;40.53
11395;BME280;5753;54.402;10.220;2022-09-24T15:42:15;101317.06;;;25.98;40.76
11395;BME280;5753;54.402;10.220;2022-09-24T15:44:42;101313.75;;;25.93;41.18
11395;BME280;5753;54.402;10.220;2022-09-24T15:47:10;101315.53;;;26.14;40.98